Time;durP1;ratioP1;P1;durP2;ratioP2;P2;SDS_P1;SDS_P2;PMS_P1;PMS_P2;Temp;Humidity;BMP_temperature;BMP_pressure;BME280_temperature;BME280_humidity;BME280_pressure;Samples;Min_cycle;Max_cycle;Signal;HPM_P1;HPM_P2
2021/09/03 00:00:47;;;;;;;9.00;7.10;;;;;;;;;;6371216;22;20487;-72
2021/09/03 00:03:13;;;;;;;9.90;8.60;;;;;;;;;;6381528;22;20860;-72
2021/09/03 00:05:39;;;;;;;7.83;7.00;;;;;;;;;;6370940;22;20417;-72
2021/09/03 00:08:05;;;;;;;8.00;7.20;;;;;;;;;;6380767;22;20371;-72
2021/09/03 00:10:31;;;;;;;8.70;7.10;;;;;;;;;;6381366;22;20379;-72
2021/09/03 00:12:57;;;;;;;7.83;6.97;;;;;;;;;;6381146;22;20695;-72
2021/09/03 00:15:23;;;;;;;10.40;6.33;;;;;;;;;;6371167;22;20755;-72
2021/09/03 00:17:49;;;;;;;9.30;7.53;;;;;;;;;;6381589;22;20398;-72
2021/09/03 00:23:19;;;;;;;11.10;7.00;;;;;;;;;;6381494;22;20378;-72
2021/09/03 00:25:45;;;;;;;8.83;6.87;;;;;;;;;;6381019;22;20426;-71
2021/09/03 00:28:12;;;;;;;7.27;6.57;;;;;;;;;;6380439;22;20367;-71
2021/09/03 00:30:38;;;;;;;8.27;6.73;;;;;;;;;;6381354;22;20752;-71
2021/09/03 00:33:04;;;;;;;7.50;6.67;;;;;;;;;;6381370;22;20355;-72
2021/09/03 00:38:33;;;;;;;8.10;6.97;;;;;;;;;;6381359;22;20404;-71
2021/09/03 00:40:59;;;;;;;7.70;6.80;;;;;;;;;;6342488;22;20529;-72
2021/09/03 00:43:29;;;;;;;10.83;7.10;;;;;;;;;;6370308;22;20410;-72
2021/09/03 00:45:56;;;;;;;7.53;6.73;;;;;;;;;;6380865;22;20374;-72
2021/09/03 00:48:22;;;;;;;6.97;5.83;;;;;;;;;;6381274;22;20386;-72
2021/09/03 00:53:51;;;;;;;6.77;6.20;;;;;;;;;;6381333;22;20492;-72
2021/09/03 00:56:18;;;;;;;7.33;6.63;;;;;;;;;;6380649;22;20383;-72
2021/09/03 00:58:44;;;;;;;7.83;6.43;;;;;;;;;;6381345;22;20821;-72
2021/09/03 01:01:10;;;;;;;7.53;6.77;;;;;;;;;;6369480;22;20917;-72
2021/09/03 01:03:36;;;;;;;6.60;5.63;;;;;;;;;;6380864;22;20366;-72
2021/09/03 01:06:04;;;;;;;8.80;7.00;;;;;;;;;;6380943;22;20364;-72
2021/09/03 01:08:30;;;;;;;7.07;5.70;;;;;;;;;;6370670;22;20698;-72
2021/09/03 01:10:56;;;;;;;8.10;7.27;;;;;;;;;;6370166;22;20460;-72
2021/09/03 01:13:22;;;;;;;8.33;7.47;;;;;;;;;;6370159;22;20367;-71
2021/09/03 01:15:48;;;;;;;7.07;6.20;;;;;;;;;;6380161;22;20385;-71
2021/09/03 01:18:14;;;;;;;8.53;7.00;;;;;;;;;;6370132;22;20818;-72
2021/09/03 01:23:44;;;;;;;9.90;6.80;;;;;;;;;;6381016;22;20431;-72
2021/09/03 01:26:11;;;;;;;7.10;6.40;;;;;;;;;;6379693;22;20426;-72
2021/09/03 01:28:37;;;;;;;11.20;6.90;;;;;;;;;;6369759;22;20692;-72
2021/09/03 01:31:03;;;;;;;8.17;6.97;;;;;;;;;;6379400;22;20355;-71
2021/09/03 01:33:29;;;;;;;7.80;6.60;;;;;;;;;;6370556;22;20379;-71
2021/09/03 01:38:59;;;;;;;7.57;6.83;;;;;;;;;;6380933;22;20455;-72
2021/09/03 01:41:26;;;;;;;7.80;7.00;;;;;;;;;;6380278;22;20717;-72
2021/09/03 01:43:52;;;;;;;9.80;6.53;;;;;;;;;;6380712;22;20369;-72
2021/09/03 01:46:18;;;;;;;8.83;7.33;;;;;;;;;;6380396;22;20887;-72
2021/09/03 01:48:44;;;;;;;6.97;6.10;;;;;;;;;;6380070;22;20402;-71
2021/09/03 01:54:14;;;;;;;8.00;6.27;;;;;;;;;;6380658;22;20876;-72
2021/09/03 01:56:40;;;;;;;7.97;6.77;;;;;;;;;;6380325;22;20367;-72
2021/09/03 01:59:06;;;;;;;8.00;6.50;;;;;;;;;;6380520;22;20356;-72
2021/09/03 02:01:32;;;;;;;9.77;7.53;;;;;;;;;;6369822;22;20427;-72
2021/09/03 02:03:58;;;;;;;7.83;6.27;;;;;;;;;;6380620;22;20362;-72
2021/09/03 02:09:27;;;;;;;8.77;7.03;;;;;;;;;;6379751;22;20382;-73
2021/09/03 02:11:53;;;;;;;8.00;6.37;;;;;;;;;;6380094;22;20698;-72
2021/09/03 02:14:19;;;;;;;8.77;6.37;;;;;;;;;;6380462;22;20462;-72
2021/09/03 02:16:45;;;;;;;7.23;6.47;;;;;;;;;;6380345;22;20359;-72
2021/09/03 02:19:11;;;;;;;9.77;6.73;;;;;;;;;;6380501;22;20368;-72
2021/09/03 02:21:37;;;;;;;8.53;7.60;;;;;;;;;;6369524;22;20453;-72
2021/09/03 02:24:04;;;;;;;7.20;6.50;;;;;;;;;;6370288;22;20797;-73
2021/09/03 02:26:30;;;;;;;8.53;6.40;;;;;;;;;;6369523;22;20434;-73
2021/09/03 02:28:56;;;;;;;8.63;7.30;;;;;;;;;;6379402;22;20838;-72
2021/09/03 02:31:22;;;;;;;9.30;7.60;;;;;;;;;;6380271;22;20748;-73
2021/09/03 02:33:49;;;;;;;7.40;6.60;;;;;;;;;;6380473;22;20359;-73
2021/09/03 02:39:19;;;;;;;9.47;7.50;;;;;;;;;;6382609;22;20425;-73
2021/09/03 02:41:45;;;;;;;8.00;6.50;;;;;;;;;;6382062;22;20845;-72
2021/09/03 02:44:11;;;;;;;8.87;7.30;;;;;;;;;;6382291;22;20480;-73
2021/09/03 02:46:37;;;;;;;8.03;7.13;;;;;;;;;;6372040;22;20485;-73
2021/09/03 02:49:04;;;;;;;7.30;6.57;;;;;;;;;;6371657;22;20382;-73
2021/09/03 02:54:34;;;;;;;8.23;6.97;;;;;;;;;;6382119;22;20407;-72
2021/09/03 02:57:00;;;;;;;7.93;6.83;;;;;;;;;;6382013;22;20709;-72
2021/09/03 02:59:25;;;;;;;8.03;6.50;;;;;;;;;;6371752;22;20375;-73
2021/09/03 03:01:51;;;;;;;9.77;7.00;;;;;;;;;;6382001;22;20427;-73
2021/09/03 03:04:17;;;;;;;6.97;6.27;;;;;;;;;;6382165;22;20485;-72
2021/09/03 03:09:47;;;;;;;8.20;6.70;;;;;;;;;;6381567;22;20377;-72
2021/09/03 03:12:15;;;;;;;10.43;7.30;;;;;;;;;;6381378;22;20367;-72
2021/09/03 03:14:41;;;;;;;7.10;6.40;;;;;;;;;;6381896;22;20922;-72
2021/09/03 03:17:07;;;;;;;7.73;6.57;;;;;;;;;;6381934;22;20363;-72
2021/09/03 03:19:33;;;;;;;8.40;7.50;;;;;;;;;;6381973;22;20370;-72
2021/09/03 03:25:02;;;;;;;8.77;7.70;;;;;;;;;;6381798;22;20440;-73
2021/09/03 03:27:28;;;;;;;8.60;7.60;;;;;;;;;;6381412;22;20526;-72
2021/09/03 03:29:54;;;;;;;10.50;7.80;;;;;;;;;;6381600;22;20852;-73
2021/09/03 03:32:20;;;;;;;14.70;7.93;;;;;;;;;;6380922;22;20775;-72
2021/09/03 03:34:46;;;;;;;10.37;7.17;;;;;;;;;;6371430;22;20398;-72
2021/09/03 03:37:12;;;;;;;8.20;7.40;;;;;;;;;;6381712;22;20673;-72
2021/09/03 03:39:38;;;;;;;8.90;7.43;;;;;;;;;;6381723;22;20379;-72
2021/09/03 03:42:04;;;;;;;9.93;7.63;;;;;;;;;;6371160;22;20442;-72
2021/09/03 03:44:30;;;;;;;9.17;8.13;;;;;;;;;;6381658;22;20378;-72
2021/09/03 03:46:56;;;;;;;9.13;7.63;;;;;;;;;;6371100;22;20475;-72
2021/09/03 03:49:22;;;;;;;8.50;7.17;;;;;;;;;;6381333;22;20406;-72
2021/09/03 03:54:51;;;;;;;9.33;7.30;;;;;;;;;;6381671;22;20374;-72
2021/09/03 03:57:17;;;;;;;9.57;7.83;;;;;;;;;;6381298;22;20363;-72
2021/09/03 03:59:43;;;;;;;10.20;7.83;;;;;;;;;;6370750;22;20871;-72
2021/09/03 04:02:09;;;;;;;9.20;8.20;;;;;;;;;;6370531;22;20517;-72
2021/09/03 04:04:35;;;;;;;10.97;8.50;;;;;;;;;;6381596;22;20428;-72
2021/09/03 04:10:05;;;;;;;9.23;8.10;;;;;;;;;;6380312;22;20826;-73
2021/09/03 04:12:31;;;;;;;9.70;7.80;;;;;;;;;;6380616;22;20376;-73
2021/09/03 04:14:57;;;;;;;10.00;8.30;;;;;;;;;;6370684;22;20452;-72
2021/09/03 04:17:24;;;;;;;11.00;9.10;;;;;;;;;;6381372;22;20367;-72
2021/09/03 04:19:50;;;;;;;9.27;7.80;;;;;;;;;;6381346;22;20408;-73
2021/09/03 04:25:19;;;;;;;13.47;9.23;;;;;;;;;;6380960;22;20408;-73
2021/09/03 04:27:45;;;;;;;8.67;7.77;;;;;;;;;;6381726;22;20710;-72
2021/09/03 04:30:11;;;;;;;10.90;8.07;;;;;;;;;;6370910;22;20453;-73
2021/09/03 04:32:38;;;;;;;10.73;9.00;;;;;;;;;;6381201;22;20387;-72
2021/09/03 04:35:04;;;;;;;11.00;8.30;;;;;;;;;;6380165;22;20395;-72
2021/09/03 04:40:34;;;;;;;11.87;8.80;;;;;;;;;;6380881;22;20441;-72
2021/09/03 04:43:00;;;;;;;9.27;8.27;;;;;;;;;;6370654;22;20906;-72
2021/09/03 04:45:26;;;;;;;10.73;8.67;;;;;;;;;;6381039;22;20707;-72
2021/09/03 04:47:54;;;;;;;13.20;8.70;;;;;;;;;;6381238;22;20371;-72
2021/09/03 04:50:20;;;;;;;13.80;9.07;;;;;;;;;;6381176;22;20706;-72
2021/09/03 04:55:52;;;;;;;11.77;9.10;;;;;;;;;;6380108;22;20699;-72
2021/09/03 04:58:18;;;;;;;9.87;8.70;;;;;;;;;;6380995;22;20382;-72
2021/09/03 05:00:44;;;;;;;12.27;9.23;;;;;;;;;;6380729;22;20849;-72
2021/09/03 05:03:10;;;;;;;12.60;9.27;;;;;;;;;;6370708;22;20371;-73
2021/09/03 05:05:36;;;;;;;10.53;8.97;;;;;;;;;;6380732;22;20459;-72
2021/09/03 05:08:02;;;;;;;11.13;8.27;;;;;;;;;;6380908;22;20478;-72
2021/09/03 05:10:28;;;;;;;10.17;9.17;;;;;;;;;;6380621;22;20374;-72
2021/09/03 05:12:54;;;;;;;11.33;9.37;;;;;;;;;;6380992;22;20375;-71
2021/09/03 05:15:28;;;;;;;10.53;8.90;;;;;;;;;;6369572;22;20370;-71
2021/09/03 05:17:54;;;;;;;10.57;8.70;;;;;;;;;;6370578;22;20417;-71
2021/09/03 05:20:20;;;;;;;10.47;8.10;;;;;;;;;;6380791;22;20457;-72
2021/09/03 05:25:49;;;;;;;10.00;7.87;;;;;;;;;;6380406;22;20486;-72
2021/09/03 05:28:15;;;;;;;10.93;7.77;;;;;;;;;;6369894;22;20363;-72
2021/09/03 05:30:41;;;;;;;9.03;8.13;;;;;;;;;;6370533;22;20383;-72
2021/09/03 05:33:07;;;;;;;12.63;7.90;;;;;;;;;;6371687;22;20726;-72
2021/09/03 05:35:33;;;;;;;9.07;7.60;;;;;;;;;;6380351;22;20364;-72
2021/09/03 05:41:03;;;;;;;10.67;8.40;;;;;;;;;;6380364;22;20438;-73
2021/09/03 05:43:29;;;;;;;11.47;8.87;;;;;;;;;;6380548;22;20423;-73
2021/09/03 05:45:55;;;;;;;9.03;7.60;;;;;;;;;;6380373;22;20410;-73
2021/09/03 05:48:21;;;;;;;9.00;8.10;;;;;;;;;;6380494;22;20375;-73
2021/09/03 05:50:47;;;;;;;10.93;8.70;;;;;;;;;;6369785;22;20379;-73
2021/09/03 05:56:16;;;;;;;9.27;7.60;;;;;;;;;;6380438;22;20374;-73
2021/09/03 05:58:42;;;;;;;9.40;8.40;;;;;;;;;;6380643;22;20375;-73
2021/09/03 06:01:08;;;;;;;20.83;9.90;;;;;;;;;;6380528;22;20427;-73
2021/09/03 06:03:34;;;;;;;9.67;8.33;;;;;;;;;;6380662;22;20450;-73
2021/09/03 06:06:00;;;;;;;13.33;10.27;;;;;;;;;;6380669;22;20383;-73
2021/09/03 06:11:30;;;;;;;14.07;8.57;;;;;;;;;;6380957;22;20956;-73
2021/09/03 06:13:56;;;;;;;13.57;9.40;;;;;;;;;;6382901;22;20375;-73
2021/09/03 06:16:22;;;;;;;14.23;9.10;;;;;;;;;;6383150;22;20368;-73
2021/09/03 06:18:49;;;;;;;18.23;10.03;;;;;;;;;;6383007;22;20372;-73
2021/09/03 06:21:15;;;;;;;19.40;8.93;;;;;;;;;;6382721;22;20423;-73
2021/09/03 06:23:41;;;;;;;11.90;8.50;;;;;;;;;;6382782;22;20374;-73
2021/09/03 06:26:07;;;;;;;10.90;8.93;;;;;;;;;;6382369;22;20430;-73
2021/09/03 06:28:33;;;;;;;12.87;9.70;;;;;;;;;;6382673;22;20450;-73
2021/09/03 06:30:59;;;;;;;10.70;8.70;;;;;;;;;;6371979;22;20871;-73
2021/09/03 06:33:25;;;;;;;11.13;8.97;;;;;;;;;;6372450;22;20381;-73
2021/09/03 06:35:51;;;;;;;9.60;7.63;;;;;;;;;;6382797;22;20530;-73
2021/09/03 06:41:20;;;;;;;12.87;9.20;;;;;;;;;;6382318;22;20418;-73
2021/09/03 06:43:46;;;;;;;10.27;9.00;;;;;;;;;;6371929;22;20391;-73
2021/09/03 06:46:12;;;;;;;12.40;9.20;;;;;;;;;;6371695;22;20390;-73
2021/09/03 06:48:38;;;;;;;13.70;9.37;;;;;;;;;;6372381;22;20379;-73
2021/09/03 06:51:04;;;;;;;12.93;8.80;;;;;;;;;;6372114;22;20704;-73
2021/09/03 06:56:34;;;;;;;15.27;8.57;;;;;;;;;;6382161;22;20439;-73
2021/09/03 06:59:02;;;;;;;14.10;8.93;;;;;;;;;;6382345;22;20841;-73
2021/09/03 07:01:28;;;;;;;12.00;9.23;;;;;;;;;;6371546;22;20430;-73
2021/09/03 07:03:54;;;;;;;10.77;9.67;;;;;;;;;;6371951;22;20382;-73
2021/09/03 07:06:19;;;;;;;10.10;8.83;;;;;;;;;;6371820;22;20379;-73
2021/09/03 07:11:49;;;;;;;11.70;8.40;;;;;;;;;;6381908;22;20366;-73
2021/09/03 07:14:15;;;;;;;12.03;9.80;;;;;;;;;;6343594;22;20458;-73
2021/09/03 07:16:43;;;;;;;9.97;8.20;;;;;;;;;;6340148;22;20399;-73
2021/09/03 07:19:09;;;;;;;8.93;8.00;;;;;;;;;;6379946;22;20363;-74
2021/09/03 07:21:35;;;;;;;9.93;8.93;;;;;;;;;;6369526;22;20441;-73
2021/09/03 07:24:02;;;;;;;10.50;8.40;;;;;;;;;;6378389;22;20439;-73
2021/09/03 07:26:28;;;;;;;12.93;9.10;;;;;;;;;;6369088;22;20472;-74
2021/09/03 07:28:54;;;;;;;13.23;8.40;;;;;;;;;;6379592;22;20395;-73
2021/09/03 07:31:21;;;;;;;9.33;8.43;;;;;;;;;;6369545;22;20399;-74
2021/09/03 07:33:48;;;;;;;15.47;8.20;;;;;;;;;;6369266;22;20383;-73
2021/09/03 07:36:14;;;;;;;10.30;8.83;;;;;;;;;;6369437;22;20391;-73
2021/09/03 07:41:43;;;;;;;10.23;8.27;;;;;;;;;;6379361;22;20751;-72
2021/09/03 07:44:09;;;;;;;10.30;9.20;;;;;;;;;;6379567;22;20375;-73
2021/09/03 07:46:35;;;;;;;8.50;7.33;;;;;;;;;;6379907;22;20408;-72
2021/09/03 07:49:01;;;;;;;10.90;8.17;;;;;;;;;;6379784;22;20823;-72
2021/09/03 07:51:28;;;;;;;9.43;8.17;;;;;;;;;;6369093;22;20753;-74
2021/09/03 07:56:57;;;;;;;7.50;6.70;;;;;;;;;;6379286;22;20415;-72
2021/09/03 07:59:23;;;;;;;10.53;8.20;;;;;;;;;;6369240;22;20387;-73
2021/09/03 08:01:49;;;;;;;7.93;7.13;;;;;;;;;;6379956;22;20434;-72
2021/09/03 08:04:17;;;;;;;11.40;9.50;;;;;;;;;;6379898;22;20371;-73
2021/09/03 08:06:43;;;;;;;10.97;8.73;;;;;;;;;;6369202;22;20376;-72
2021/09/03 08:12:13;;;;;;;9.87;8.87;;;;;;;;;;6379873;22;20416;-73
2021/09/03 08:14:39;;;;;;;11.87;8.93;;;;;;;;;;6369374;22;20371;-73
2021/09/03 08:17:05;;;;;;;16.53;9.47;;;;;;;;;;6379251;22;20366;-72
2021/09/03 08:19:31;;;;;;;12.10;8.30;;;;;;;;;;6379443;22;20371;-73
2021/09/03 08:21:57;;;;;;;10.10;7.83;;;;;;;;;;6379342;22;20430;-73
2021/09/03 08:24:23;;;;;;;10.13;8.73;;;;;;;;;;6379355;22;20420;-73
2021/09/03 08:26:49;;;;;;;10.70;9.23;;;;;;;;;;6378925;22;20441;-73
2021/09/03 08:29:15;;;;;;;15.47;10.13;;;;;;;;;;6379336;22;20372;-72
2021/09/03 08:31:41;;;;;;;9.70;8.07;;;;;;;;;;6379119;22;20375;-73
2021/09/03 08:34:07;;;;;;;8.30;7.50;;;;;;;;;;6379031;22;20360;-73
2021/09/03 08:36:33;;;;;;;8.73;7.43;;;;;;;;;;6369041;22;20706;-73
2021/09/03 08:42:03;;;;;;;8.17;7.37;;;;;;;;;;6378937;22;20529;-73
2021/09/03 08:44:32;;;;;;;9.97;7.73;;;;;;;;;;6379239;22;20363;-72
2021/09/03 08:46:59;;;;;;;9.77;7.60;;;;;;;;;;6368853;22;20384;-73
2021/09/03 08:49:25;;;;;;;12.47;6.73;;;;;;;;;;6379489;22;20363;-74
2021/09/03 08:51:51;;;;;;;9.03;7.47;;;;;;;;;;6379176;22;20364;-73
2021/09/03 08:57:21;;;;;;;7.83;7.03;;;;;;;;;;6378895;22;20378;-74
2021/09/03 08:59:47;;;;;;;10.37;9.30;;;;;;;;;;6378970;22;20450;-74
2021/09/03 09:02:14;;;;;;;13.90;7.30;;;;;;;;;;6379107;22;20454;-74
2021/09/03 09:04:41;;;;;;;15.17;8.40;;;;;;;;;;6378902;22;20375;-74
2021/09/03 09:07:07;;;;;;;10.13;8.97;;;;;;;;;;6368677;22;20782;-74
2021/09/03 09:09:34;;;;;;;8.57;7.77;;;;;;;;;;6368732;22;20386;-74
2021/09/03 09:12:04;;;;;;;14.83;8.27;;;;;;;;;;6378525;22;20409;-75
2021/09/03 09:14:34;;;;;;;11.63;8.10;;;;;;;;;;6368331;22;20375;-73
2021/09/03 09:17:02;;;;;;;11.00;8.70;;;;;;;;;;6378803;22;20374;-74
2021/09/03 09:19:28;;;;;;;10.63;8.17;;;;;;;;;;6378992;22;20378;-74
2021/09/03 09:22:00;;;;;;;11.93;7.67;;;;;;;;;;6378603;22;20436;-74
2021/09/03 09:27:30;;;;;;;8.20;7.50;;;;;;;;;;6378196;22;20453;-74
2021/09/03 09:29:56;;;;;;;9.47;7.63;;;;;;;;;;6378348;22;20830;-74
2021/09/03 09:32:27;;;;;;;8.50;7.70;;;;;;;;;;6339986;22;20387;-73
2021/09/03 09:34:56;;;;;;;10.20;7.20;;;;;;;;;;6378984;22;20806;-74
2021/09/03 09:37:22;;;;;;;8.13;7.33;;;;;;;;;;6378728;22;20374;-74
2021/09/03 09:39:51;;;;;;;8.20;7.40;;;;;;;;;;6378992;22;20367;-74
2021/09/03 09:42:21;;;;;;;8.23;7.40;;;;;;;;;;6367855;22;20427;-74
2021/09/03 09:44:48;;;;;;;9.90;8.90;;;;;;;;;;6368536;22;20360;-74
2021/09/03 09:47:14;;;;;;;12.07;9.37;;;;;;;;;;6378264;22;20375;-74
2021/09/03 09:49:40;;;;;;;10.80;8.10;;;;;;;;;;6378376;22;20368;-73
2021/09/03 09:52:06;;;;;;;13.93;7.27;;;;;;;;;;6378648;22;20375;-73
2021/09/03 09:57:36;;;;;;;8.20;7.43;;;;;;;;;;6379416;22;20374;-74
2021/09/03 10:00:05;;;;;;;11.20;7.73;;;;;;;;;;6368238;22;20380;-74
2021/09/03 10:02:33;;;;;;;9.47;6.50;;;;;;;;;;6368075;22;20488;-73
2021/09/03 10:05:02;;;;;;;18.50;9.77;;;;;;;;;;6378676;22;20416;-74
2021/09/03 10:07:28;;;;;;;15.20;8.03;;;;;;;;;;6378616;22;20409;-73
2021/09/03 10:09:54;;;;;;;10.50;9.40;;;;;;;;;;6378603;22;20795;-74
2021/09/03 10:12:20;;;;;;;8.90;8.00;;;;;;;;;;6368052;22;20474;-74
2021/09/03 10:14:46;;;;;;;8.93;8.10;;;;;;;;;;6378273;22;20470;-73
2021/09/03 10:17:12;;;;;;;8.60;7.63;;;;;;;;;;6378633;22;20375;-74
2021/09/03 10:19:41;;;;;;;9.87;7.47;;;;;;;;;;6378645;22;20701;-74
2021/09/03 10:22:08;;;;;;;9.93;8.93;;;;;;;;;;6378338;22;20426;-74
2021/09/03 10:27:39;;;;;;;10.33;8.80;;;;;;;;;;6378378;22;20922;-74
2021/09/03 10:30:15;;;;;;;9.60;7.80;;;;;;;;;;6367872;22;20428;-74
2021/09/03 10:32:41;;;;;;;9.63;8.30;;;;;;;;;;6378575;22;20370;-74
2021/09/03 10:35:20;;;;;;;10.00;8.27;;;;;;;;;;6368110;22;20371;-74
2021/09/03 10:37:46;;;;;;;10.27;9.23;;;;;;;;;;6340230;22;20391;-75
2021/09/03 10:40:20;;;;;;;12.30;8.67;;;;;;;;;;6367768;22;20475;-74
2021/09/03 10:42:48;;;;;;;11.37;8.07;;;;;;;;;;6368049;22;20461;-73
2021/09/03 10:45:18;;;;;;;8.60;7.70;;;;;;;;;;6378376;22;20446;-73
2021/09/03 10:47:56;;;;;;;8.73;7.83;;;;;;;;;;6367865;22;20846;-74
2021/09/03 10:50:24;;;;;;;9.53;7.40;;;;;;;;;;6378302;22;20391;-74
2021/09/03 10:55:49;;;;;;;10.27;9.17;;;;;;;;;;6377938;22;20448;-74
2021/09/03 10:58:29;;;;;;;7.77;6.97;;;;;;;;;;6379382;22;20382;-74
2021/09/03 11:01:13;;;;;;;7.97;7.27;;;;;;;;;;6369187;22;20466;-74
2021/09/03 11:03:48;;;;;;;9.77;7.57;;;;;;;;;;6369646;22;20387;-74
2021/09/03 11:06:24;;;;;;;7.73;6.93;;;;;;;;;;6370152;22;20386;-74
2021/09/03 11:08:51;;;;;;;8.03;6.73;;;;;;;;;;6379949;22;20810;-73
2021/09/03 11:11:24;;;;;;;7.93;7.13;;;;;;;;;;6379893;22;20465;-74
2021/09/03 11:13:51;;;;;;;6.93;6.33;;;;;;;;;;6369408;22;20402;-73
2021/09/03 11:16:30;;;;;;;9.20;7.57;;;;;;;;;;6379926;22;20375;-74
2021/09/03 11:19:02;;;;;;;10.33;7.60;;;;;;;;;;6379932;22;20371;-74
2021/09/03 11:21:36;;;;;;;9.53;6.93;;;;;;;;;;6379868;22;20433;-73
2021/09/03 11:24:02;;;;;;;9.13;7.80;;;;;;;;;;6380141;22;20372;-73
2021/09/03 11:26:29;;;;;;;7.80;7.00;;;;;;;;;;6379048;22;20522;-73
2021/09/03 11:28:58;;;;;;;9.10;8.20;;;;;;;;;;6379733;22;20371;-73
2021/09/03 11:31:25;;;;;;;8.70;7.27;;;;;;;;;;6380031;22;20378;-74
2021/09/03 11:33:51;;;;;;;6.30;5.47;;;;;;;;;;6369791;22;20379;-73
2021/09/03 11:36:17;;;;;;;7.47;6.80;;;;;;;;;;6379843;22;20690;-74
2021/09/03 11:38:43;;;;;;;8.83;7.57;;;;;;;;;;6341475;22;20876;-74
2021/09/03 11:41:10;;;;;;;7.20;6.50;;;;;;;;;;6369367;22;20423;-74
2021/09/03 11:43:37;;;;;;;6.50;5.87;;;;;;;;;;6369634;22;20511;-73
2021/09/03 11:46:16;;;;;;;7.30;5.90;;;;;;;;;;6379780;22;20401;-74
2021/09/03 11:48:43;;;;;;;6.90;6.20;;;;;;;;;;6369465;22;20675;-74
2021/09/03 11:51:15;;;;;;;8.23;6.07;;;;;;;;;;6369145;22;20360;-73
2021/09/03 11:53:41;;;;;;;10.67;6.70;;;;;;;;;;6369119;22;20398;-73
2021/09/03 11:56:11;;;;;;;7.13;6.30;;;;;;;;;;6379420;22;20692;-73
2021/09/03 11:58:38;;;;;;;9.00;7.27;;;;;;;;;;6379480;22;20439;-73
2021/09/03 12:01:06;;;;;;;9.37;6.30;;;;;;;;;;6379399;22;20422;-74
2021/09/03 12:03:33;;;;;;;7.60;6.90;;;;;;;;;;6369262;22;20849;-74
2021/09/03 12:06:03;;;;;;;7.03;6.33;;;;;;;;;;6369220;22;20386;-74
2021/09/03 12:08:36;;;;;;;6.97;6.27;;;;;;;;;;6379274;22;20378;-74
2021/09/03 12:11:04;;;;;;;7.93;6.53;;;;;;;;;;6368755;22;20403;-74
2021/09/03 12:13:31;;;;;;;7.00;6.27;;;;;;;;;;6379351;22;20398;-74
2021/09/03 12:16:00;;;;;;;8.00;7.30;;;;;;;;;;6379584;22;20389;-74
2021/09/03 12:18:28;;;;;;;6.50;5.57;;;;;;;;;;6369357;22;20702;-74
2021/09/03 12:20:57;;;;;;;8.43;5.93;;;;;;;;;;6369020;22;20422;-74
2021/09/03 12:23:23;;;;;;;6.80;6.13;;;;;;;;;;6381127;22;20368;-74
2021/09/03 12:25:49;;;;;;;6.40;5.40;;;;;;;;;;6379110;22;20418;-74
2021/09/03 12:28:17;;;;;;;6.50;5.90;;;;;;;;;;6379472;22;20670;-74
2021/09/03 12:30:43;;;;;;;7.97;5.57;;;;;;;;;;6369175;22;20375;-74
2021/09/03 12:33:18;;;;;;;7.03;5.50;;;;;;;;;;6340772;22;20399;-74
2021/09/03 12:35:45;;;;;;;7.67;6.23;;;;;;;;;;6368980;22;20387;-74
2021/09/03 12:38:11;;;;;;;6.63;5.90;;;;;;;;;;6369112;22;20422;-74
2021/09/03 12:40:37;;;;;;;6.90;5.73;;;;;;;;;;6378831;22;20829;-74
2021/09/03 12:43:03;;;;;;;6.80;6.20;;;;;;;;;;6369038;22;20390;-74
2021/09/03 12:45:42;;;;;;;6.50;5.90;;;;;;;;;;6379136;22;20367;-74
2021/09/03 12:48:08;;;;;;;6.33;5.80;;;;;;;;;;6379184;22;20417;-74
2021/09/03 12:50:34;;;;;;;6.30;5.70;;;;;;;;;;6378942;22;20820;-74
2021/09/03 12:53:00;;;;;;;6.87;5.20;;;;;;;;;;6379145;22;20382;-73
2021/09/03 12:55:26;;;;;;;6.70;6.00;;;;;;;;;;6368172;22;20874;-74
2021/09/03 12:57:52;;;;;;;5.37;4.87;;;;;;;;;;6378951;22;20464;-75
2021/09/03 13:00:18;;;;;;;5.77;5.13;;;;;;;;;;6368571;22;20680;-74
2021/09/03 13:02:44;;;;;;;6.17;5.53;;;;;;;;;;6379074;22;20423;-74
2021/09/03 13:05:10;;;;;;;6.40;5.57;;;;;;;;;;6368044;22;20367;-74
2021/09/03 13:07:36;;;;;;;6.00;5.50;;;;;;;;;;6378791;22;20371;-74
2021/09/03 13:13:06;;;;;;;5.30;4.80;;;;;;;;;;6378828;22;20378;-75
2021/09/03 13:15:32;;;;;;;6.17;5.33;;;;;;;;;;6368590;22;20367;-74
2021/09/03 13:17:59;;;;;;;6.40;5.70;;;;;;;;;;6373087;22;20363;-74
2021/09/03 13:20:25;;;;;;;6.27;5.67;;;;;;;;;;6367950;22;20379;-74
2021/09/03 13:22:51;;;;;;;10.23;4.97;;;;;;;;;;6368144;22;20459;-74
2021/09/03 13:28:21;;;;;;;6.33;5.40;;;;;;;;;;6315720;22;20465;-74
2021/09/03 13:30:48;;;;;;;5.17;4.60;;;;;;;;;;6303739;22;20884;-74
2021/09/03 13:33:14;;;;;;;5.70;5.20;;;;;;;;;;6315754;22;20473;-74
2021/09/03 13:35:40;;;;;;;6.60;5.37;;;;;;;;;;6314548;22;20874;-74
2021/09/03 13:38:06;;;;;;;5.47;5.07;;;;;;;;;;6314807;22;20388;-74
2021/09/03 13:40:32;;;;;;;5.00;4.50;;;;;;;;;;6314661;22;20381;-74
2021/09/03 13:42:58;;;;;;;5.13;4.73;;;;;;;;;;6314580;22;20392;-73
2021/09/03 13:45:24;;;;;;;6.07;4.73;;;;;;;;;;6314667;22;20369;-73
2021/09/03 13:47:50;;;;;;;5.83;4.10;;;;;;;;;;6304709;22;20380;-73
2021/09/03 13:50:16;;;;;;;5.53;5.03;;;;;;;;;;6304302;22;20466;-73
2021/09/03 13:52:43;;;;;;;5.23;4.77;;;;;;;;;;6314889;22;20430;-73
2021/09/03 13:58:12;;;;;;;4.80;4.30;;;;;;;;;;6314891;22;20430;-72
2021/09/03 14:00:38;;;;;;;5.30;4.80;;;;;;;;;;6315684;22;20820;-72
2021/09/03 14:03:04;;;;;;;6.80;4.27;;;;;;;;;;6316766;22;20468;-73
2021/09/03 14:05:30;;;;;;;4.80;4.40;;;;;;;;;;6316798;22;20396;-73
2021/09/03 14:07:56;;;;;;;7.30;5.07;;;;;;;;;;6316854;22;20388;-73
2021/09/03 14:13:26;;;;;;;5.93;4.53;;;;;;;;;;6316808;22;20371;-74
2021/09/03 14:15:52;;;;;;;4.80;4.40;;;;;;;;;;6316846;22;20377;-73
2021/09/03 14:18:18;;;;;;;4.83;4.43;;;;;;;;;;6316869;22;20376;-73
2021/09/03 14:20:43;;;;;;;7.70;4.40;;;;;;;;;;6306887;22;20704;-73
2021/09/03 14:23:10;;;;;;;5.17;4.67;;;;;;;;;;6316943;22;20471;-72
2021/09/03 14:28:39;;;;;;;4.83;4.03;;;;;;;;;;6380426;22;20382;-72
2021/09/03 14:31:05;;;;;;;4.97;4.53;;;;;;;;;;6380217;22;20375;-72
2021/09/03 14:33:31;;;;;;;4.10;3.70;;;;;;;;;;6381328;22;20378;-72
2021/09/03 14:36:00;;;;;;;4.10;3.70;;;;;;;;;;6381826;22;20453;-71
2021/09/03 14:44:14;;;;;;;5.47;4.60;;;;;;;;;;6381505;22;20370;-72
2021/09/03 14:46:40;;;;;;;4.93;4.50;;;;;;;;;;6382416;22;20371;-72
2021/09/03 14:49:10;;;;;;;4.80;3.60;;;;;;;;;;6382119;22;20359;-72
2021/09/03 14:51:36;;;;;;;4.77;3.77;;;;;;;;;;6383438;22;20382;-73
2021/09/03 14:54:02;;;;;;;4.33;4.03;;;;;;;;;;6384380;22;20363;-72
2021/09/03 14:56:29;;;;;;;4.70;4.30;;;;;;;;;;6382012;22;20386;-72
2021/09/03 14:58:54;;;;;;;4.20;3.80;;;;;;;;;;6382236;22;20370;-72
2021/09/03 15:01:20;;;;;;;4.70;4.30;;;;;;;;;;6382106;22;20414;-72
2021/09/03 15:03:46;;;;;;;4.30;3.90;;;;;;;;;;6382429;22;20371;-73
2021/09/03 15:06:13;;;;;;;4.53;4.13;;;;;;;;;;6371324;22;20979;-72
2021/09/03 15:08:39;;;;;;;5.60;4.30;;;;;;;;;;6371107;22;20860;-73
2021/09/03 15:14:10;;;;;;;4.03;3.73;;;;;;;;;;6381470;22;20382;-73
2021/09/03 15:16:36;;;;;;;4.13;3.77;;;;;;;;;;6371217;22;20424;-67
2021/09/03 15:19:02;;;;;;;4.17;3.77;;;;;;;;;;6381890;22;20367;-71
2021/09/03 15:21:28;;;;;;;4.50;4.10;;;;;;;;;;6343179;22;20998;-69
2021/09/03 15:23:54;;;;;;;4.30;3.90;;;;;;;;;;6371756;22;20502;-67
2021/09/03 15:26:20;;;;;;;4.27;3.90;;;;;;;;;;6371203;22;20710;-68
2021/09/03 15:28:46;;;;;;;4.33;3.93;;;;;;;;;;6381794;22;20363;-67
2021/09/03 15:31:12;;;;;;;3.93;3.53;;;;;;;;;;6371696;22;20403;-69
2021/09/03 15:33:37;;;;;;;4.00;3.60;;;;;;;;;;6382002;22;20367;-73
2021/09/03 15:36:04;;;;;;;4.63;4.23;;;;;;;;;;6381949;22;20767;-73
2021/09/03 15:38:30;;;;;;;4.00;3.70;;;;;;;;;;6371784;22;20609;-73
2021/09/03 15:43:59;;;;;;;4.63;4.23;;;;;;;;;;6380618;22;20813;-72
2021/09/03 15:46:25;;;;;;;4.50;3.97;;;;;;;;;;6381112;22;20368;-73
2021/09/03 15:48:51;;;;;;;4.33;3.90;;;;;;;;;;6381363;22;20733;-73
2021/09/03 15:51:17;;;;;;;6.17;4.43;;;;;;;;;;6381062;22;20714;-71
2021/09/03 15:53:43;;;;;;;3.40;3.10;;;;;;;;;;6381060;22;20430;-72
2021/09/03 15:59:13;;;;;;;4.17;3.77;;;;;;;;;;6381152;22;20488;-73
2021/09/03 16:01:39;;;;;;;4.90;4.30;;;;;;;;;;6381154;22;20449;-72
2021/09/03 16:04:05;;;;;;;4.87;4.37;;;;;;;;;;6381381;22;20387;-72
2021/09/03 16:06:32;;;;;;;4.87;4.47;;;;;;;;;;6381270;22;20367;-72
2021/09/03 16:08:58;;;;;;;4.37;3.80;;;;;;;;;;6370438;22;20899;-72
2021/09/03 16:11:24;;;;;;;8.10;4.97;;;;;;;;;;6380656;22;20768;-72
2021/09/03 16:13:50;;;;;;;6.13;4.90;;;;;;;;;;6380871;22;20379;-72
2021/09/03 16:16:16;;;;;;;5.50;4.13;;;;;;;;;;6370601;22;20378;-72
2021/09/03 16:18:42;;;;;;;4.43;4.07;;;;;;;;;;6370594;22;20384;-72
2021/09/03 16:21:08;;;;;;;4.67;4.27;;;;;;;;;;6380948;22;20915;-73
2021/09/03 16:23:34;;;;;;;5.40;4.90;;;;;;;;;;6381031;22;20414;-73
2021/09/03 16:29:04;;;;;;;5.60;5.10;;;;;;;;;;6380592;22;20436;-70
2021/09/03 16:31:30;;;;;;;4.60;4.17;;;;;;;;;;6380512;22;20359;-69
2021/09/03 16:33:56;;;;;;;5.47;4.97;;;;;;;;;;6380880;22;20837;-73
2021/09/03 16:36:25;;;;;;;5.97;5.40;;;;;;;;;;6381187;22;20370;-72
2021/09/03 16:38:51;;;;;;;5.63;4.37;;;;;;;;;;6370579;22;20465;-71
2021/09/03 16:44:20;;;;;;;5.80;5.30;;;;;;;;;;6374448;22;20423;-71
2021/09/03 16:46:46;;;;;;;8.13;6.17;;;;;;;;;;6377346;22;20466;-71
2021/09/03 16:49:12;;;;;;;5.73;4.60;;;;;;;;;;6366727;22;20450;-71